createdAt,value
2018-06-01T00:01:12.273Z,93.10
2018-06-01T00:03:46.481Z,92.60
2018-06-01T00:06:21.528Z,92.50
2018-06-01T00:08:55.732Z,92.50
2018-06-01T00:11:30.377Z,92.70
2018-06-01T00:14:05.547Z,93.10
2018-06-01T00:16:39.791Z,93.20
2018-06-01T00:19:17.558Z,92.70
2018-06-01T00:21:52.158Z,92.90
2018-06-01T00:24:25.817Z,92.60
2018-06-01T00:26:59.500Z,92.80
2018-06-01T00:29:33.139Z,92.90
2018-06-01T00:32:07.756Z,93.10
2018-06-01T00:34:42.332Z,93.30
2018-06-01T00:37:16.552Z,93.50
2018-06-01T00:39:50.185Z,93.70
2018-06-01T00:42:23.859Z,94.10
2018-06-01T00:44:57.503Z,94.10
2018-06-01T00:47:31.740Z,94.00
2018-06-01T00:50:05.835Z,94.20
2018-06-01T00:52:39.523Z,94.20
2018-06-01T00:55:24.336Z,94.00
2018-06-01T00:57:58.020Z,94.10
2018-06-01T01:00:32.408Z,94.40
2018-06-01T01:03:05.766Z,94.60
2018-06-01T01:05:39.398Z,95.00
2018-06-01T01:08:14.032Z,95.30
2018-06-01T01:10:47.653Z,95.70
2018-06-01T01:13:21.770Z,96.50
2018-06-01T01:15:56.167Z,97.10
2018-06-01T01:18:30.860Z,97.10
2018-06-01T01:21:05.477Z,97.10
2018-06-01T01:23:39.143Z,97.10
2018-06-01T01:26:12.786Z,97.30
2018-06-01T01:28:46.473Z,97.60
2018-06-01T01:31:20.122Z,97.70
2018-06-01T01:33:53.795Z,97.80
2018-06-01T01:36:27.479Z,97.80
2018-06-01T01:39:01.140Z,98.00
2018-06-01T01:41:35.545Z,98.00
2018-06-01T01:44:09.214Z,98.00
2018-06-01T01:46:42.846Z,98.20
2018-06-01T01:49:16.517Z,98.40
2018-06-01T01:51:50.147Z,98.30
2018-06-01T01:54:23.825Z,98.50
2018-06-01T01:56:57.464Z,98.60
2018-06-01T01:59:31.955Z,98.70
2018-06-01T02:02:05.593Z,98.60
2018-06-01T02:04:39.264Z,98.90
2018-06-01T02:07:12.891Z,99.10
2018-06-01T02:09:47.327Z,99.30
2018-06-01T02:12:21.975Z,99.30
2018-06-01T02:14:56.571Z,99.30
2018-06-01T02:17:31.208Z,99.60
2018-06-01T02:20:04.556Z,99.70
2018-06-01T02:22:39.028Z,99.90
2018-06-01T02:25:12.670Z,99.90
2018-06-01T02:27:46.349Z,99.90
2018-06-01T02:30:19.734Z,99.90
2018-06-01T02:32:53.421Z,99.90
2018-06-01T02:35:28.192Z,99.90
2018-06-01T02:38:01.869Z,99.90
2018-06-01T02:40:36.468Z,99.90
2018-06-01T02:43:11.112Z,99.90
2018-06-01T02:45:44.420Z,99.90
2018-06-01T02:48:18.099Z,99.90
2018-06-01T02:50:51.731Z,99.90
2018-06-01T02:53:25.419Z,99.90
2018-06-01T02:55:59.062Z,99.90
2018-06-01T02:58:33.503Z,99.90
2018-06-01T03:01:06.800Z,99.90
2018-06-01T03:03:40.480Z,99.90
2018-06-01T03:06:15.103Z,99.90
2018-06-01T03:08:48.568Z,99.90
2018-06-01T03:11:22.251Z,99.90
2018-06-01T03:13:55.921Z,99.90
2018-06-01T03:16:30.569Z,99.90
2018-06-01T03:19:04.582Z,99.90
2018-06-01T03:21:38.230Z,99.70
2018-06-01T03:24:12.664Z,98.70
2018-06-01T03:26:46.336Z,98.70
2018-06-01T03:29:20.003Z,96.20
2018-06-01T03:31:54.993Z,95.00
2018-06-01T03:34:29.248Z,95.00
2018-06-01T03:37:04.215Z,92.30
2018-06-01T03:39:38.461Z,92.30
2018-06-01T03:42:12.660Z,91.10
2018-06-01T03:44:47.860Z,89.30
2018-06-01T03:47:22.056Z,85.10
2018-06-01T03:49:57.051Z,79.30
2018-06-01T03:52:31.251Z,79.20
2018-06-01T03:55:05.495Z,76.90
2018-06-01T03:57:40.663Z,74.40
2018-06-01T04:00:14.911Z,73.00
2018-06-01T04:02:49.110Z,71.80
2018-06-01T04:05:23.338Z,72.00
2018-06-01T04:07:57.536Z,74.00
2018-06-01T04:10:32.748Z,77.10
2018-06-01T04:13:07.708Z,83.40
2018-06-01T04:15:41.640Z,83.40
2018-06-01T04:18:15.853Z,80.60
2018-06-01T04:20:50.093Z,74.60
2018-06-01T04:23:24.356Z,69.20
2018-06-01T04:25:58.625Z,66.90
2018-06-01T04:28:32.814Z,62.90
2018-06-01T04:31:07.051Z,62.50
2018-06-01T04:33:41.323Z,63.70
2018-06-01T04:36:16.539Z,66.20
2018-06-01T04:38:50.748Z,68.80
2018-06-01T04:41:24.991Z,71.20
2018-06-01T04:44:00.620Z,74.30
2018-06-01T04:46:34.855Z,78.20
2018-06-01T04:49:09.058Z,81.60
2018-06-01T04:51:43.896Z,84.70
2018-06-01T04:54:19.056Z,87.20
2018-06-01T04:56:53.300Z,88.40
2018-06-01T04:59:28.275Z,89.20
2018-06-01T05:02:03.486Z,89.20
2018-06-01T05:04:37.694Z,90.00
2018-06-01T05:07:12.911Z,90.00
2018-06-01T05:09:47.872Z,90.30
2018-06-01T05:12:22.108Z,90.10
2018-06-01T05:14:56.356Z,88.70
2018-06-01T05:17:30.590Z,87.80
2018-06-01T05:20:05.589Z,86.00
2018-06-01T05:22:39.831Z,86.10
2018-06-01T05:25:15.028Z,84.10
2018-06-01T05:27:49.995Z,79.20
2018-06-01T05:30:24.211Z,73.30
2018-06-01T05:32:58.460Z,68.90
2018-06-01T05:35:32.756Z,65.30
2018-06-01T05:38:07.150Z,63.40
2018-06-01T05:40:41.345Z,62.10
2018-06-01T05:43:15.599Z,61.30
2018-06-01T05:45:50.564Z,52.40
2018-06-01T05:48:24.809Z,52.40
2018-06-01T05:50:59.994Z,50.00
2018-06-01T05:53:35.009Z,48.20
2018-06-01T05:56:09.987Z,48.40
2018-06-01T05:58:44.233Z,48.40
2018-06-01T06:01:18.449Z,48.10
2018-06-01T06:03:52.683Z,46.60
2018-06-01T06:06:27.359Z,48.50
2018-06-01T06:09:01.594Z,48.50
2018-06-01T06:11:36.474Z,49.30
2018-06-01T06:14:10.708Z,49.80
2018-06-01T06:16:45.910Z,50.20
2018-06-01T06:19:20.870Z,48.70
2018-06-01T06:21:54.820Z,48.70
2018-06-01T06:24:28.725Z,50.20
2018-06-01T06:27:02.689Z,49.30
2018-06-01T06:29:36.604Z,49.30
2018-06-01T06:32:10.560Z,47.80
2018-06-01T06:34:44.457Z,46.60
2018-06-01T06:37:19.171Z,42.40
2018-06-01T06:39:53.103Z,42.20
2018-06-01T06:42:27.094Z,42.10
2018-06-01T06:45:01.001Z,41.70
2018-06-01T06:47:36.495Z,42.90
2018-06-01T06:50:11.399Z,43.90
2018-06-01T06:52:47.380Z,43.70
2018-06-01T06:55:21.296Z,44.00
2018-06-01T06:57:56.216Z,44.70
2018-06-01T07:00:30.150Z,45.60
2018-06-01T07:03:04.101Z,45.00
2018-06-01T07:05:41.619Z,43.90
2018-06-01T07:08:16.567Z,43.80
2018-06-01T07:10:50.475Z,42.40
2018-06-01T07:13:24.413Z,40.40
2018-06-01T07:15:58.491Z,39.40
2018-06-01T07:18:32.674Z,38.10
2018-06-01T07:21:25.999Z,37.70
2018-06-01T07:24:00.994Z,37.70
2018-06-01T07:26:38.623Z,36.60
2018-06-01T07:29:12.742Z,36.40
2018-06-01T07:31:48.223Z,36.40
2018-06-01T07:34:23.043Z,35.70
2018-06-01T07:36:56.992Z,36.30
2018-06-01T07:39:30.894Z,35.70
2018-06-01T07:42:04.876Z,37.40
2018-06-01T07:44:38.812Z,37.00
2018-06-01T07:47:12.733Z,37.50
2018-06-01T07:49:46.691Z,37.00
2018-06-01T07:52:20.593Z,35.50
2018-06-01T07:54:54.537Z,35.90
2018-06-01T07:57:28.444Z,36.70
2018-06-01T08:00:02.385Z,37.40
2018-06-01T08:02:36.299Z,38.30
2018-06-01T08:05:11.043Z,38.70
2018-06-01T08:07:46.677Z,39.10
2018-06-01T08:10:22.352Z,38.50
2018-06-01T08:12:56.291Z,38.50
2018-06-01T08:15:30.200Z,38.90
2018-06-01T08:18:04.147Z,39.20
2018-06-01T08:20:38.832Z,39.60
2018-06-01T08:23:13.756Z,39.50
2018-06-01T08:25:47.666Z,40.40
2018-06-01T08:28:21.609Z,40.90
2018-06-01T08:30:55.512Z,40.60
2018-06-01T08:33:29.478Z,40.80
2018-06-01T08:36:03.386Z,41.60
2018-06-01T08:38:37.340Z,43.20
2018-06-01T08:41:11.262Z,42.30
2018-06-01T08:43:45.977Z,43.50
2018-06-01T08:46:20.691Z,43.00
2018-06-01T08:48:54.796Z,43.00
2018-06-01T08:51:28.699Z,41.40
2018-06-01T08:54:03.592Z,40.80
2018-06-01T08:56:37.497Z,40.60
2018-06-01T08:59:11.132Z,40.50
2018-06-01T09:01:46.191Z,39.90
2018-06-01T09:04:21.865Z,40.90
2018-06-01T09:06:55.948Z,41.00
2018-06-01T09:09:30.662Z,40.70
2018-06-01T09:12:04.755Z,40.70
2018-06-01T09:14:39.663Z,41.60
2018-06-01T09:17:13.570Z,40.10
2018-06-01T09:19:48.478Z,40.80
2018-06-01T09:22:22.403Z,41.10
2018-06-01T09:24:56.343Z,41.10
2018-06-01T09:27:30.261Z,41.00
2018-06-01T09:30:03.885Z,42.00
2018-06-01T09:32:38.613Z,41.10
2018-06-01T09:35:13.334Z,41.20
2018-06-01T09:37:48.981Z,39.90
2018-06-01T09:40:23.700Z,38.30
2018-06-01T09:42:59.989Z,38.70
2018-06-01T09:45:34.174Z,38.10
2018-06-01T09:48:08.854Z,38.70
2018-06-01T09:50:42.789Z,38.70
2018-06-01T09:53:16.697Z,39.50
2018-06-01T09:55:50.639Z,39.40
2018-06-01T09:58:24.580Z,40.60
2018-06-01T10:01:00.002Z,40.60
2018-06-01T10:03:33.941Z,40.50
2018-06-01T10:06:07.559Z,40.90
2018-06-01T10:08:41.499Z,42.10
2018-06-01T10:11:17.163Z,43.00
2018-06-01T10:13:52.080Z,42.90
2018-06-01T10:16:25.982Z,42.40
2018-06-01T10:19:00.696Z,43.10
2018-06-01T10:21:35.380Z,43.20
2018-06-01T10:24:09.321Z,43.20
2018-06-01T10:26:43.221Z,44.00
2018-06-01T10:29:17.154Z,43.20
2018-06-01T10:31:51.822Z,42.70
2018-06-01T10:34:26.806Z,42.70
2018-06-01T10:37:01.513Z,42.90
2018-06-01T10:39:35.681Z,42.80
2018-06-01T10:42:09.788Z,41.00
2018-06-01T10:44:43.720Z,40.20
2018-06-01T10:47:18.587Z,41.60
2018-06-01T10:49:54.311Z,39.90
2018-06-01T10:52:28.255Z,39.80
2018-06-01T10:55:02.933Z,41.40
2018-06-01T10:57:36.872Z,41.40
2018-06-01T11:00:10.811Z,41.30
2018-06-01T11:02:44.769Z,40.60
2018-06-01T11:05:19.100Z,39.90
2018-06-01T11:08:00.424Z,40.50
2018-06-01T11:10:35.415Z,41.70
2018-06-01T11:13:09.324Z,42.00
2018-06-01T11:15:44.444Z,42.50
2018-06-01T11:18:18.422Z,42.20
2018-06-01T11:20:53.285Z,39.80
2018-06-01T11:23:28.021Z,40.60
2018-06-01T11:26:03.579Z,41.60
2018-06-01T11:28:38.120Z,41.10
2018-06-01T11:31:14.611Z,41.10
2018-06-01T11:33:52.647Z,42.00
2018-06-01T11:36:28.366Z,42.00
2018-06-01T11:39:09.288Z,40.20
2018-06-01T11:41:47.181Z,40.70
2018-06-01T11:44:22.916Z,41.40
2018-06-01T11:46:57.848Z,41.70
2018-06-01T11:49:31.790Z,41.00
2018-06-01T11:52:06.773Z,41.20
2018-06-01T11:54:40.704Z,41.20
2018-06-01T11:57:15.411Z,41.50
2018-06-01T11:59:49.320Z,41.10
2018-06-01T12:02:23.258Z,41.10
2018-06-01T12:04:59.577Z,41.20
2018-06-01T12:07:34.749Z,41.20
2018-06-01T12:10:09.367Z,40.20
2018-06-01T12:12:44.080Z,40.30
2018-06-01T12:15:18.935Z,41.00
2018-06-01T12:17:54.620Z,39.80
2018-06-01T12:20:28.568Z,39.80
2018-06-01T12:23:02.476Z,40.70
2018-06-01T12:25:36.428Z,40.30
2018-06-01T12:28:10.341Z,40.90
2018-06-01T12:30:48.318Z,41.00
2018-06-01T12:33:23.961Z,40.80
2018-06-01T12:35:57.907Z,40.80
2018-06-01T12:38:32.279Z,42.40
2018-06-01T12:41:08.353Z,40.70
2018-06-01T12:43:43.749Z,40.60
2018-06-01T12:46:17.721Z,42.60
2018-06-01T12:48:51.677Z,41.20
2018-06-01T12:51:25.581Z,39.80
2018-06-01T12:54:00.525Z,43.70
2018-06-01T12:56:34.595Z,44.50
2018-06-01T12:59:08.533Z,44.10
2018-06-01T13:01:42.436Z,44.20
2018-06-01T13:04:16.374Z,43.80
2018-06-01T13:06:52.030Z,43.40
2018-06-01T13:09:25.988Z,43.40
2018-06-01T13:11:59.896Z,44.30
2018-06-01T13:14:33.832Z,44.20
2018-06-01T13:17:08.704Z,45.20
2018-06-01T13:19:42.652Z,44.40
2018-06-01T13:22:16.605Z,46.80
2018-06-01T13:24:51.513Z,47.40
2018-06-01T13:27:26.188Z,48.60
2018-06-01T13:30:00.135Z,48.50
2018-06-01T13:32:34.051Z,49.00
2018-06-01T13:35:08.942Z,48.20
2018-06-01T13:37:42.843Z,47.40
2018-06-01T13:40:16.774Z,48.00
2018-06-01T13:42:50.713Z,47.50
2018-06-01T13:45:24.613Z,46.80
2018-06-01T13:47:59.312Z,47.80
2018-06-01T13:50:33.215Z,47.70
2018-06-01T13:53:07.167Z,47.10
2018-06-01T13:55:41.070Z,46.30
2018-06-01T13:58:15.007Z,46.90
2018-06-01T14:00:48.918Z,46.60
2018-06-01T14:03:22.876Z,47.10
2018-06-01T14:05:57.556Z,46.90
2018-06-01T14:08:31.499Z,46.90
2018-06-01T14:11:06.187Z,47.20
2018-06-01T14:13:40.149Z,47.10
2018-06-01T14:16:15.636Z,47.90
2018-06-01T14:18:49.585Z,47.90
2018-06-01T14:21:23.491Z,48.70
2018-06-01T14:23:57.428Z,49.20
2018-06-01T14:26:32.321Z,49.70
2018-06-01T14:29:06.416Z,49.80
2018-06-01T14:31:40.331Z,50.00
2018-06-01T14:34:14.272Z,50.10
2018-06-01T14:36:49.154Z,48.70
2018-06-01T14:39:24.084Z,49.10
2018-06-01T14:41:57.997Z,49.70
2018-06-01T14:44:31.945Z,49.70
2018-06-01T14:47:06.388Z,50.20
2018-06-01T14:49:40.423Z,50.10
2018-06-01T14:52:15.328Z,51.30
2018-06-01T14:54:49.267Z,52.30
2018-06-01T14:57:24.139Z,52.70
2018-06-01T14:59:58.368Z,53.20
2018-06-01T15:02:33.375Z,53.70
2018-06-01T15:05:07.584Z,53.60
2018-06-01T15:07:41.824Z,54.00
2018-06-01T15:10:16.793Z,54.70
2018-06-01T15:12:51.040Z,54.70
2018-06-01T15:15:26.235Z,54.80
2018-06-01T15:18:00.476Z,55.10
2018-06-01T15:20:34.672Z,55.40
2018-06-01T15:23:08.900Z,55.90
2018-06-01T15:25:43.166Z,56.00
2018-06-01T15:28:17.532Z,56.30
2018-06-01T15:30:51.735Z,56.00
2018-06-01T15:33:25.971Z,56.10
2018-06-01T15:36:01.134Z,55.90
2018-06-01T15:38:35.364Z,56.10
2018-06-01T15:41:10.325Z,56.80
2018-06-01T15:43:44.549Z,56.80
2018-06-01T15:46:19.717Z,56.50
2018-06-01T15:48:54.024Z,56.90
2018-06-01T15:51:28.228Z,56.60
2018-06-01T15:54:02.212Z,56.80
2018-06-01T15:56:37.423Z,56.80
2018-06-01T15:59:11.668Z,56.70
2018-06-01T16:01:47.626Z,56.90
2018-06-01T16:04:21.834Z,57.00
2018-06-01T16:06:55.745Z,57.50
2018-06-01T16:09:29.941Z,57.70
2018-06-01T16:12:04.943Z,58.30
2018-06-01T16:14:39.156Z,57.80
2018-06-01T16:17:13.410Z,58.30
2018-06-01T16:19:47.609Z,58.80
2018-06-01T16:22:21.847Z,58.70
2018-06-01T16:24:56.097Z,58.80
2018-06-01T16:27:31.302Z,59.10
2018-06-01T16:30:05.532Z,59.10
2018-06-01T16:32:40.527Z,59.20
2018-06-01T16:35:14.732Z,59.10
2018-06-01T16:37:48.963Z,58.70
2018-06-01T16:40:23.165Z,59.20
2018-06-01T16:42:58.350Z,59.50
2018-06-01T16:45:32.555Z,59.80
2018-06-01T16:48:07.754Z,60.10
2018-06-01T16:50:41.959Z,60.00
2018-06-01T16:53:16.188Z,60.10
2018-06-01T16:55:50.396Z,60.10
2018-06-01T16:58:25.618Z,60.60
2018-06-01T17:01:00.613Z,60.80
2018-06-01T17:03:34.803Z,60.80
2018-06-01T17:06:09.714Z,61.20
2018-06-01T17:08:43.909Z,61.40
2018-06-01T17:11:18.915Z,61.90
2018-06-01T17:13:53.112Z,61.90
2018-06-01T17:16:28.439Z,62.60
2018-06-01T17:19:02.677Z,62.90
2018-06-01T17:21:36.905Z,64.20
2018-06-01T17:24:12.090Z,65.50
2018-06-01T17:26:46.320Z,65.40
2018-06-01T17:29:20.521Z,65.50
2018-06-01T17:31:55.740Z,65.80
2018-06-01T17:34:29.990Z,66.00
2018-06-01T17:37:05.206Z,66.00
2018-06-01T17:39:40.434Z,66.20
2018-06-01T17:42:14.662Z,66.60
2018-06-01T17:44:48.855Z,66.70
2018-06-01T17:47:23.102Z,67.20
2018-06-01T17:49:57.349Z,67.30
2018-06-01T17:52:31.792Z,67.40
2018-06-01T17:55:05.656Z,68.00
2018-06-01T17:57:40.916Z,67.90
2018-06-01T18:00:15.113Z,67.50
2018-06-01T18:02:49.346Z,67.70
2018-06-01T18:05:23.540Z,67.90
2018-06-01T18:07:57.775Z,67.40
2018-06-01T18:10:31.965Z,68.10
2018-06-01T18:13:06.214Z,67.80
2018-06-01T18:15:41.209Z,64.50
2018-06-01T18:18:16.416Z,64.30
2018-06-01T18:20:50.655Z,62.70
2018-06-01T18:23:24.916Z,62.00
2018-06-01T18:25:59.126Z,62.00
2018-06-01T18:28:33.375Z,62.60
2018-06-01T18:31:07.576Z,62.40
2018-06-01T18:33:41.813Z,62.80
2018-06-01T18:36:16.011Z,63.10
2018-06-01T18:38:51.240Z,63.60
2018-06-01T18:41:25.442Z,63.80
2018-06-01T18:44:00.466Z,64.70
2018-06-01T18:46:35.435Z,65.40
2018-06-01T18:49:10.676Z,65.30
2018-06-01T18:51:44.849Z,65.80
2018-06-01T18:54:19.856Z,68.50
2018-06-01T18:56:54.065Z,70.00
2018-06-01T18:59:28.299Z,70.70
2018-06-01T19:02:03.271Z,73.10
2018-06-01T19:04:37.710Z,73.20
2018-06-01T19:07:12.877Z,74.50
2018-06-01T19:09:47.112Z,74.60
2018-06-01T19:12:21.308Z,75.00
2018-06-01T19:14:55.563Z,75.50
2018-06-01T19:17:29.823Z,76.30
2018-06-01T19:20:04.859Z,77.20
2018-06-01T19:22:39.051Z,78.10
2018-06-01T19:25:13.291Z,79.60
2018-06-01T19:27:47.488Z,80.80
2018-06-01T19:30:22.683Z,82.00
2018-06-01T19:32:57.852Z,83.20
2018-06-01T19:35:32.092Z,85.00
2018-06-01T19:38:05.963Z,86.90
2018-06-01T19:40:40.200Z,87.40
2018-06-01T19:43:14.397Z,88.70
2018-06-01T19:45:48.633Z,90.00
2018-06-01T19:48:22.828Z,90.70
2018-06-01T19:50:58.046Z,91.80
2018-06-01T19:53:33.955Z,92.80
2018-06-01T19:56:09.148Z,92.80
2018-06-01T19:58:43.326Z,93.40
2018-06-01T20:01:19.361Z,94.30
2018-06-01T20:03:53.540Z,94.30
2018-06-01T20:06:28.762Z,95.00
2018-06-01T20:09:02.949Z,95.80
2018-06-01T20:11:37.179Z,96.60
2018-06-01T20:14:12.330Z,97.30
2018-06-01T20:16:46.599Z,98.40
2018-06-01T20:19:21.560Z,98.80
2018-06-01T20:21:55.808Z,98.80
2018-06-01T20:24:30.002Z,99.00
2018-06-01T20:27:05.238Z,99.30
2018-06-01T20:29:39.448Z,99.50
2018-06-01T20:32:14.692Z,99.80
2018-06-01T20:34:48.887Z,99.90
2018-06-01T20:37:23.194Z,99.90
2018-06-01T20:39:57.447Z,99.90
2018-06-01T20:42:32.601Z,99.90
2018-06-01T20:45:06.487Z,99.90
2018-06-01T20:47:40.725Z,99.90
2018-06-01T20:50:14.926Z,99.90
2018-06-01T20:52:50.134Z,99.90
2018-06-01T20:55:24.336Z,99.90
2018-06-01T21:00:56.212Z,99.90
2018-06-01T21:03:30.653Z,99.90
2018-06-01T21:06:05.420Z,99.90
2018-06-01T21:08:39.592Z,99.90
2018-06-01T21:11:13.798Z,99.90
2018-06-01T21:13:48.078Z,99.90
2018-06-01T21:16:23.052Z,99.90
2018-06-01T21:18:57.278Z,99.90
2018-06-01T21:21:31.670Z,99.90
2018-06-01T21:24:05.904Z,99.90
2018-06-01T21:26:40.123Z,99.90
2018-06-01T21:29:14.371Z,99.90
2018-06-01T21:31:48.570Z,99.90
2018-06-01T21:34:22.804Z,99.90
2018-06-01T21:36:57.016Z,99.90
2018-06-01T21:39:31.262Z,99.90
2018-06-01T21:42:05.463Z,99.90
2018-06-01T21:44:41.437Z,99.90
2018-06-01T21:47:15.674Z,99.90
2018-06-01T21:49:49.899Z,99.90
2018-06-01T21:52:24.096Z,99.90
2018-06-01T21:54:59.308Z,99.90
2018-06-01T21:57:33.512Z,99.90
2018-06-01T22:00:08.104Z,99.90
2018-06-01T22:02:42.311Z,99.90
2018-06-01T22:05:16.535Z,99.90
2018-06-01T22:07:51.513Z,99.90
2018-06-01T22:10:25.773Z,99.90
2018-06-01T22:12:59.982Z,99.90
2018-06-01T22:15:34.239Z,99.90
2018-06-01T22:18:09.438Z,99.90
2018-06-01T22:20:43.677Z,99.90
2018-06-01T22:23:18.672Z,99.90
2018-06-01T22:25:53.867Z,99.90
2018-06-01T22:28:28.104Z,99.90
2018-06-01T22:31:03.334Z,99.90
2018-06-01T22:33:38.311Z,99.90
2018-06-01T22:36:12.550Z,99.90
2018-06-01T22:38:48.502Z,99.90
2018-06-01T22:41:23.503Z,99.90
2018-06-01T22:43:57.729Z,99.90
2018-06-01T22:46:31.983Z,99.90
2018-06-01T22:49:06.184Z,99.90
2018-06-01T22:51:41.204Z,99.90
2018-06-01T22:54:16.181Z,99.90
2018-06-01T22:56:50.824Z,99.90
2018-06-01T22:59:25.038Z,99.90
2018-06-01T23:01:59.288Z,99.90
2018-06-01T23:04:33.497Z,99.90
2018-06-01T23:07:07.739Z,99.90
2018-06-01T23:09:41.937Z,99.90
2018-06-01T23:12:17.932Z,99.90
2018-06-01T23:14:52.142Z,99.90
2018-06-01T23:17:27.353Z,99.90
2018-06-01T23:20:02.314Z,99.90
2018-06-01T23:22:37.539Z,99.90
2018-06-01T23:25:11.766Z,99.90
2018-06-01T23:27:46.082Z,99.90
2018-06-01T23:30:20.302Z,99.90
2018-06-01T23:32:54.556Z,99.90
2018-06-01T23:35:30.508Z,99.90
2018-06-01T23:38:04.744Z,99.90
2018-06-01T23:40:39.705Z,99.90
2018-06-01T23:43:14.926Z,99.90
2018-06-01T23:45:50.096Z,99.90
2018-06-01T23:48:25.325Z,99.90
2018-06-01T23:50:59.541Z,99.90
2018-06-01T23:53:33.807Z,99.90
2018-06-01T23:56:08.794Z,99.90
2018-06-01T23:58:43.054Z,99.90
